Terminal Aerodrome Forecast
Issued by NWS St Louis, MO

Home | Current Version | Previous Version | Text Only | Print | Product List | Glossary On
Versions: 1 2 3 4 5 6 7 8 9 10 11 12 13 14 15 16 17 18 19 20 21 22
000
FTUS43 KLSX 271619 AAB
TAFCOU
TAF AMD
KCOU 271619Z 2716/2812 28011G17KT P6SM BKN035
     FM271900 26010KT P6SM FEW250
     FM272300 VRB05KT P6SM BKN200
     FM280700 10006KT P6SM -SHRA OVC070
     FM281100 11008KT P6SM -SHRA OVC030=

USA.gov is the U.S. government's official web portal to all federal, state and local government web resources and services.